sensor_id;sensor_type;location;lat;lon;timestamp;temperature;humidity
1205;DHT22;592;48.764;9.174;2023-02-18T08:31:41;12.10;99.90
1205;DHT22;592;48.764;9.174;2023-02-18T10:10:44;13.30;99.90
1205;DHT22;592;48.764;9.174;2023-02-18T11:17:57;13.80;99.90
1205;DHT22;592;48.764;9.174;2023-02-18T11:20:37;13.80;99.90
1205;DHT22;592;48.764;9.174;2023-02-18T11:23:18;13.80;99.90
1205;DHT22;592;48.764;9.174;2023-02-18T11:25:57;13.80;99.90
1205;DHT22;592;48.764;9.174;2023-02-18T11:28:38;13.80;99.90
1205;DHT22;592;48.764;9.174;2023-02-18T11:31:19;13.70;99.90
1205;DHT22;592;48.764;9.174;2023-02-18T12:09:59;14.20;99.90
1205;DHT22;592;48.764;9.174;2023-02-18T12:12:31;14.20;99.90
1205;DHT22;592;48.764;9.174;2023-02-18T12:14:59;14.20;99.90
1205;DHT22;592;48.764;9.174;2023-02-18T12:17:36;14.20;99.90
1205;DHT22;592;48.764;9.174;2023-02-18T12:20:21;14.20;99.90
1205;DHT22;592;48.764;9.174;2023-02-18T12:23:00;14.30;99.90
1205;DHT22;592;48.764;9.174;2023-02-18T12:25:37;14.40;99.90
1205;DHT22;592;48.764;9.174;2023-02-18T12:31:06;14.50;99.90
1205;DHT22;592;48.764;9.174;2023-02-18T12:33:45;14.80;99.90
1205;DHT22;592;48.764;9.174;2023-02-18T12:36:25;14.90;99.90
1205;DHT22;592;48.764;9.174;2023-02-18T12:39:07;15.00;99.90
1205;DHT22;592;48.764;9.174;2023-02-18T12:41:53;14.90;99.90
1205;DHT22;592;48.764;9.174;2023-02-18T12:44:35;14.60;99.90
1205;DHT22;592;48.764;9.174;2023-02-18T12:47:29;14.70;99.90
1205;DHT22;592;48.764;9.174;2023-02-18T12:50:24;14.60;99.90
1205;DHT22;592;48.764;9.174;2023-02-18T12:55:55;14.40;99.90
1205;DHT22;592;48.764;9.174;2023-02-18T12:58:35;14.40;99.90
1205;DHT22;592;48.764;9.174;2023-02-18T13:01:20;14.30;99.90
1205;DHT22;592;48.764;9.174;2023-02-18T13:04:18;14.50;99.90
1205;DHT22;592;48.764;9.174;2023-02-18T13:07:14;14.20;99.90
1205;DHT22;592;48.764;9.174;2023-02-18T13:09:56;14.40;99.90
1205;DHT22;592;48.764;9.174;2023-02-18T13:12:28;14.60;99.90
1205;DHT22;592;48.764;9.174;2023-02-18T13:15:04;14.50;99.90
1205;DHT22;592;48.764;9.174;2023-02-18T13:30:35;14.20;99.90
1205;DHT22;592;48.764;9.174;2023-02-18T13:40:49;14.20;99.90
1205;DHT22;592;48.764;9.174;2023-02-18T13:56:27;14.50;99.90
1205;DHT22;592;48.764;9.174;2023-02-18T14:35:21;14.70;99.90
1205;DHT22;592;48.764;9.174;2023-02-18T14:43:07;14.40;99.90
1205;DHT22;592;48.764;9.174;2023-02-18T15:03:48;14.00;99.90
1205;DHT22;592;48.764;9.174;2023-02-18T15:06:23;14.20;99.90
1205;DHT22;592;48.764;9.174;2023-02-18T15:08:51;14.00;99.90
1205;DHT22;592;48.764;9.174;2023-02-18T15:11:19;14.00;99.90
1205;DHT22;592;48.764;9.174;2023-02-18T15:13:47;14.10;99.90
1205;DHT22;592;48.764;9.174;2023-02-18T15:18:56;13.90;99.90
1205;DHT22;592;48.764;9.174;2023-02-18T15:21:28;13.80;99.90
1205;DHT22;592;48.764;9.174;2023-02-18T15:24:00;13.80;99.90
1205;DHT22;592;48.764;9.174;2023-02-18T15:26:30;13.80;99.90
1205;DHT22;592;48.764;9.174;2023-02-18T15:28:58;13.80;99.90
1205;DHT22;592;48.764;9.174;2023-02-18T15:31:27;13.80;99.90
1205;DHT22;592;48.764;9.174;2023-02-18T15:33:56;13.80;99.90
1205;DHT22;592;48.764;9.174;2023-02-18T15:36:25;13.80;99.90
1205;DHT22;592;48.764;9.174;2023-02-18T15:38:51;13.70;99.90
1205;DHT22;592;48.764;9.174;2023-02-18T15:41:19;13.80;99.90
1205;DHT22;592;48.764;9.174;2023-02-18T15:43:52;13.70;99.90
1205;DHT22;592;48.764;9.174;2023-02-18T15:46:20;13.70;99.90
1205;DHT22;592;48.764;9.174;2023-02-18T15:48:50;13.70;99.90
1205;DHT22;592;48.764;9.174;2023-02-18T15:51:25;13.60;99.90
1205;DHT22;592;48.764;9.174;2023-02-18T15:53:55;13.60;99.90
1205;DHT22;592;48.764;9.174;2023-02-18T15:56:29;13.50;99.90
1205;DHT22;592;48.764;9.174;2023-02-18T15:59:08;13.50;99.90
1205;DHT22;592;48.764;9.174;2023-02-18T16:01:35;13.40;99.90
1205;DHT22;592;48.764;9.174;2023-02-18T16:04:05;13.40;99.90
1205;DHT22;592;48.764;9.174;2023-02-18T16:06:37;13.50;99.90
1205;DHT22;592;48.764;9.174;2023-02-18T16:09:12;13.50;99.90
1205;DHT22;592;48.764;9.174;2023-02-18T16:11:43;13.50;99.90
1205;DHT22;592;48.764;9.174;2023-02-18T16:14:23;13.40;99.90
1205;DHT22;592;48.764;9.174;2023-02-18T16:17:14;13.30;99.90
1205;DHT22;592;48.764;9.174;2023-02-18T16:19:48;13.30;99.90
1205;DHT22;592;48.764;9.174;2023-02-18T16:22:35;13.30;99.90
1205;DHT22;592;48.764;9.174;2023-02-18T16:25:15;13.30;99.90
1205;DHT22;592;48.764;9.174;2023-02-18T16:27:49;13.40;99.90
1205;DHT22;592;48.764;9.174;2023-02-18T16:30:18;13.30;99.90
1205;DHT22;592;48.764;9.174;2023-02-18T16:32:45;13.20;99.90
1205;DHT22;592;48.764;9.174;2023-02-18T16:35:12;13.10;99.90
1205;DHT22;592;48.764;9.174;2023-02-18T16:37:43;13.10;99.90
1205;DHT22;592;48.764;9.174;2023-02-18T16:40:25;13.10;99.90
1205;DHT22;592;48.764;9.174;2023-02-18T16:42:53;13.00;99.90
1205;DHT22;592;48.764;9.174;2023-02-18T16:45:23;13.00;99.90
1205;DHT22;592;48.764;9.174;2023-02-18T16:47:51;13.00;99.90
1205;DHT22;592;48.764;9.174;2023-02-18T16:50:19;12.90;99.90
1205;DHT22;592;48.764;9.174;2023-02-18T16:52:49;12.90;99.90
1205;DHT22;592;48.764;9.174;2023-02-18T16:55:18;12.90;99.90
1205;DHT22;592;48.764;9.174;2023-02-18T16:57:45;12.80;99.90
1205;DHT22;592;48.764;9.174;2023-02-18T17:00:13;12.90;99.90
1205;DHT22;592;48.764;9.174;2023-02-18T17:02:41;12.80;99.90
1205;DHT22;592;48.764;9.174;2023-02-18T17:05:11;12.90;99.90
1205;DHT22;592;48.764;9.174;2023-02-18T17:10:18;12.90;99.90
1205;DHT22;592;48.764;9.174;2023-02-18T17:15:33;12.80;99.90
1205;DHT22;592;48.764;9.174;2023-02-18T17:18:00;12.80;99.90
1205;DHT22;592;48.764;9.174;2023-02-18T17:20:55;12.90;99.90
1205;DHT22;592;48.764;9.174;2023-02-18T17:23:26;12.90;99.90
1205;DHT22;592;48.764;9.174;2023-02-18T17:25:54;12.90;99.90
1205;DHT22;592;48.764;9.174;2023-02-18T17:28:25;12.80;99.90
1205;DHT22;592;48.764;9.174;2023-02-18T17:33:28;12.90;99.90
1205;DHT22;592;48.764;9.174;2023-02-18T17:35:56;12.80;99.90
1205;DHT22;592;48.764;9.174;2023-02-18T17:38:23;12.80;99.90
1205;DHT22;592;48.764;9.174;2023-02-18T17:44:07;12.80;99.90
1205;DHT22;592;48.764;9.174;2023-02-18T17:46:35;12.80;99.90
1205;DHT22;592;48.764;9.174;2023-02-18T17:49:03;12.70;99.90
1205;DHT22;592;48.764;9.174;2023-02-18T17:51:30;12.80;99.90
1205;DHT22;592;48.764;9.174;2023-02-18T17:53:59;12.70;99.90
1205;DHT22;592;48.764;9.174;2023-02-18T17:56:25;12.70;99.90
1205;DHT22;592;48.764;9.174;2023-02-18T17:58:52;12.60;99.90
1205;DHT22;592;48.764;9.174;2023-02-18T18:01:20;12.60;99.90
1205;DHT22;592;48.764;9.174;2023-02-18T18:03:47;12.60;99.90
1205;DHT22;592;48.764;9.174;2023-02-18T18:06:15;12.60;99.90
1205;DHT22;592;48.764;9.174;2023-02-18T18:08:42;12.60;99.90
1205;DHT22;592;48.764;9.174;2023-02-18T18:11:12;12.60;99.90
1205;DHT22;592;48.764;9.174;2023-02-18T18:13:40;12.60;99.90
1205;DHT22;592;48.764;9.174;2023-02-18T18:16:09;12.50;99.90
1205;DHT22;592;48.764;9.174;2023-02-18T18:18:38;12.50;99.90
1205;DHT22;592;48.764;9.174;2023-02-18T18:21:08;12.60;99.90
1205;DHT22;592;48.764;9.174;2023-02-18T18:23:39;12.60;99.90
1205;DHT22;592;48.764;9.174;2023-02-18T18:26:06;12.60;99.90
1205;DHT22;592;48.764;9.174;2023-02-18T18:28:34;12.50;99.90
1205;DHT22;592;48.764;9.174;2023-02-18T18:31:00;12.50;99.90
1205;DHT22;592;48.764;9.174;2023-02-18T18:33:30;12.40;99.90
1205;DHT22;592;48.764;9.174;2023-02-18T18:35:59;12.50;99.90
1205;DHT22;592;48.764;9.174;2023-02-18T18:38:28;12.50;99.90
1205;DHT22;592;48.764;9.174;2023-02-18T18:40:54;12.50;99.90
1205;DHT22;592;48.764;9.174;2023-02-18T18:43:23;12.50;99.90
1205;DHT22;592;48.764;9.174;2023-02-18T18:45:51;12.60;99.90
1205;DHT22;592;48.764;9.174;2023-02-18T18:48:19;12.50;99.90
1205;DHT22;592;48.764;9.174;2023-02-18T18:50:46;12.50;99.90
1205;DHT22;592;48.764;9.174;2023-02-18T18:53:16;12.40;99.90
1205;DHT22;592;48.764;9.174;2023-02-18T18:55:46;12.40;99.90
1205;DHT22;592;48.764;9.174;2023-02-18T18:58:13;12.40;99.90
1205;DHT22;592;48.764;9.174;2023-02-18T19:00:45;12.30;99.90
1205;DHT22;592;48.764;9.174;2023-02-18T19:03:13;12.30;99.90
1205;DHT22;592;48.764;9.174;2023-02-18T19:05:41;12.40;99.90
1205;DHT22;592;48.764;9.174;2023-02-18T19:08:09;12.40;99.90
1205;DHT22;592;48.764;9.174;2023-02-18T19:10:40;12.30;99.90
1205;DHT22;592;48.764;9.174;2023-02-18T19:13:09;12.30;99.90
1205;DHT22;592;48.764;9.174;2023-02-18T19:15:36;12.30;99.90
1205;DHT22;592;48.764;9.174;2023-02-18T19:18:03;12.30;99.90
1205;DHT22;592;48.764;9.174;2023-02-18T19:20:34;12.30;99.90
1205;DHT22;592;48.764;9.174;2023-02-18T19:23:01;12.30;99.90
1205;DHT22;592;48.764;9.174;2023-02-18T19:25:28;12.30;99.90
1205;DHT22;592;48.764;9.174;2023-02-18T19:27:56;12.30;99.90
1205;DHT22;592;48.764;9.174;2023-02-18T19:30:24;12.40;99.90
1205;DHT22;592;48.764;9.174;2023-02-18T19:32:53;12.40;99.90
1205;DHT22;592;48.764;9.174;2023-02-18T19:35:22;12.30;99.90
1205;DHT22;592;48.764;9.174;2023-02-18T19:37:50;12.30;99.90
1205;DHT22;592;48.764;9.174;2023-02-18T19:40:20;12.30;99.90
1205;DHT22;592;48.764;9.174;2023-02-18T19:42:47;12.30;99.90
1205;DHT22;592;48.764;9.174;2023-02-18T19:45:20;12.30;99.90
1205;DHT22;592;48.764;9.174;2023-02-18T19:47:59;12.30;99.90
1205;DHT22;592;48.764;9.174;2023-02-18T19:50:28;12.20;99.90
1205;DHT22;592;48.764;9.174;2023-02-18T19:52:55;12.30;99.90
1205;DHT22;592;48.764;9.174;2023-02-18T19:55:23;12.30;99.90
1205;DHT22;592;48.764;9.174;2023-02-18T19:57:50;12.20;99.90
1205;DHT22;592;48.764;9.174;2023-02-18T20:00:20;12.10;99.90
1205;DHT22;592;48.764;9.174;2023-02-18T20:02:48;12.20;99.90
1205;DHT22;592;48.764;9.174;2023-02-18T20:05:15;12.00;99.90
1205;DHT22;592;48.764;9.174;2023-02-18T20:07:42;12.00;99.90
1205;DHT22;592;48.764;9.174;2023-02-18T20:10:13;12.00;99.90
1205;DHT22;592;48.764;9.174;2023-02-18T20:12:40;12.00;99.90
1205;DHT22;592;48.764;9.174;2023-02-18T20:15:07;11.90;99.90
1205;DHT22;592;48.764;9.174;2023-02-18T20:17:36;11.90;99.90
1205;DHT22;592;48.764;9.174;2023-02-18T20:20:03;11.90;99.90
1205;DHT22;592;48.764;9.174;2023-02-18T20:22:30;11.80;99.90
1205;DHT22;592;48.764;9.174;2023-02-18T20:24:57;11.90;99.90
1205;DHT22;592;48.764;9.174;2023-02-18T20:27:23;11.80;99.90
1205;DHT22;592;48.764;9.174;2023-02-18T20:29:50;11.60;99.90
1205;DHT22;592;48.764;9.174;2023-02-18T20:32:17;11.70;99.90
1205;DHT22;592;48.764;9.174;2023-02-18T20:34:45;11.80;99.90
1205;DHT22;592;48.764;9.174;2023-02-18T20:37:12;11.70;99.90
1205;DHT22;592;48.764;9.174;2023-02-18T20:39:39;11.60;99.90
1205;DHT22;592;48.764;9.174;2023-02-18T20:42:05;11.70;99.90
1205;DHT22;592;48.764;9.174;2023-02-18T20:44:32;11.60;99.90
1205;DHT22;592;48.764;9.174;2023-02-18T20:46:59;11.50;99.90
1205;DHT22;592;48.764;9.174;2023-02-18T20:49:26;11.50;99.90
1205;DHT22;592;48.764;9.174;2023-02-18T20:51:54;11.50;99.90
1205;DHT22;592;48.764;9.174;2023-02-18T20:54:21;11.60;99.90
1205;DHT22;592;48.764;9.174;2023-02-18T20:56:48;11.50;99.90
1205;DHT22;592;48.764;9.174;2023-02-18T20:59:17;11.60;99.90
1205;DHT22;592;48.764;9.174;2023-02-18T21:01:44;11.60;99.90
1205;DHT22;592;48.764;9.174;2023-02-18T21:04:11;11.50;99.90
1205;DHT22;592;48.764;9.174;2023-02-18T21:06:38;11.50;99.90
1205;DHT22;592;48.764;9.174;2023-02-18T21:09:06;11.40;99.90
1205;DHT22;592;48.764;9.174;2023-02-18T21:11:33;11.50;99.90
1205;DHT22;592;48.764;9.174;2023-02-18T21:14:00;11.30;99.90
1205;DHT22;592;48.764;9.174;2023-02-18T21:16:28;11.40;99.90
1205;DHT22;592;48.764;9.174;2023-02-18T21:18:56;11.50;99.90
1205;DHT22;592;48.764;9.174;2023-02-18T21:21:23;11.40;99.90
1205;DHT22;592;48.764;9.174;2023-02-18T21:23:50;11.30;99.90
1205;DHT22;592;48.764;9.174;2023-02-18T21:26:20;11.40;99.90
1205;DHT22;592;48.764;9.174;2023-02-18T21:28:48;11.40;99.90
1205;DHT22;592;48.764;9.174;2023-02-18T21:31:16;11.30;99.90
1205;DHT22;592;48.764;9.174;2023-02-18T21:33:43;11.30;99.90
1205;DHT22;592;48.764;9.174;2023-02-18T21:36:10;11.40;99.90
1205;DHT22;592;48.764;9.174;2023-02-18T21:38:37;11.40;99.90
1205;DHT22;592;48.764;9.174;2023-02-18T21:41:05;11.40;99.90
1205;DHT22;592;48.764;9.174;2023-02-18T21:43:33;11.40;99.90
1205;DHT22;592;48.764;9.174;2023-02-18T21:46:07;11.40;99.90
1205;DHT22;592;48.764;9.174;2023-02-18T21:48:34;11.30;99.90
1205;DHT22;592;48.764;9.174;2023-02-18T21:51:19;11.20;99.90
1205;DHT22;592;48.764;9.174;2023-02-18T21:53:59;11.20;99.90
1205;DHT22;592;48.764;9.174;2023-02-18T21:56:26;11.10;99.90
1205;DHT22;592;48.764;9.174;2023-02-18T21:58:54;11.10;99.90
1205;DHT22;592;48.764;9.174;2023-02-18T22:01:21;11.20;99.90
1205;DHT22;592;48.764;9.174;2023-02-18T22:03:47;11.30;99.90
1205;DHT22;592;48.764;9.174;2023-02-18T22:06:14;11.30;99.90
1205;DHT22;592;48.764;9.174;2023-02-18T22:08:41;11.30;99.90
1205;DHT22;592;48.764;9.174;2023-02-18T22:11:08;11.30;99.90
1205;DHT22;592;48.764;9.174;2023-02-18T22:13:34;11.20;99.90
1205;DHT22;592;48.764;9.174;2023-02-18T22:16:03;11.20;99.90
1205;DHT22;592;48.764;9.174;2023-02-18T22:18:30;11.30;99.90
1205;DHT22;592;48.764;9.174;2023-02-18T22:20:57;11.20;99.90
1205;DHT22;592;48.764;9.174;2023-02-18T22:23:23;11.20;99.90
1205;DHT22;592;48.764;9.174;2023-02-18T22:25:50;11.20;99.90
1205;DHT22;592;48.764;9.174;2023-02-18T22:28:17;11.30;99.90
1205;DHT22;592;48.764;9.174;2023-02-18T22:30:44;11.30;99.90
1205;DHT22;592;48.764;9.174;2023-02-18T22:33:12;11.30;99.90
1205;DHT22;592;48.764;9.174;2023-02-18T22:35:39;11.30;99.90
1205;DHT22;592;48.764;9.174;2023-02-18T22:38:05;11.20;99.90
1205;DHT22;592;48.764;9.174;2023-02-18T22:40:32;11.10;99.90
1205;DHT22;592;48.764;9.174;2023-02-18T22:42:59;11.20;99.90
1205;DHT22;592;48.764;9.174;2023-02-18T22:45:25;11.20;99.90
1205;DHT22;592;48.764;9.174;2023-02-18T22:47:52;11.30;99.90
1205;DHT22;592;48.764;9.174;2023-02-18T22:50:20;11.30;99.90
1205;DHT22;592;48.764;9.174;2023-02-18T22:52:47;11.30;99.90
1205;DHT22;592;48.764;9.174;2023-02-18T22:55:14;11.20;99.90
1205;DHT22;592;48.764;9.174;2023-02-18T22:57:40;11.20;99.90
1205;DHT22;592;48.764;9.174;2023-02-18T23:00:14;11.20;99.90
1205;DHT22;592;48.764;9.174;2023-02-18T23:02:42;11.20;99.90
1205;DHT22;592;48.764;9.174;2023-02-18T23:05:08;11.20;99.90
1205;DHT22;592;48.764;9.174;2023-02-18T23:07:38;11.20;99.90
1205;DHT22;592;48.764;9.174;2023-02-18T23:10:05;11.30;99.90
1205;DHT22;592;48.764;9.174;2023-02-18T23:12:31;11.30;99.90
1205;DHT22;592;48.764;9.174;2023-02-18T23:14:58;11.30;99.90
1205;DHT22;592;48.764;9.174;2023-02-18T23:17:25;11.40;99.90
1205;DHT22;592;48.764;9.174;2023-02-18T23:19:52;11.30;99.90
1205;DHT22;592;48.764;9.174;2023-02-18T23:22:24;11.30;99.90
1205;DHT22;592;48.764;9.174;2023-02-18T23:24:54;11.40;99.90
1205;DHT22;592;48.764;9.174;2023-02-18T23:27:20;11.40;99.90
1205;DHT22;592;48.764;9.174;2023-02-18T23:29:48;11.40;99.90
1205;DHT22;592;48.764;9.174;2023-02-18T23:32:15;11.40;99.90
1205;DHT22;592;48.764;9.174;2023-02-18T23:34:42;11.30;99.90
1205;DHT22;592;48.764;9.174;2023-02-18T23:37:09;11.20;99.90
1205;DHT22;592;48.764;9.174;2023-02-18T23:39:36;11.20;99.90
1205;DHT22;592;48.764;9.174;2023-02-18T23:42:05;11.20;99.90
1205;DHT22;592;48.764;9.174;2023-02-18T23:44:32;11.00;99.90
1205;DHT22;592;48.764;9.174;2023-02-18T23:46:58;11.00;99.90
1205;DHT22;592;48.764;9.174;2023-02-18T23:49:25;11.00;99.90
1205;DHT22;592;48.764;9.174;2023-02-18T23:51:55;11.00;99.90
1205;DHT22;592;48.764;9.174;2023-02-18T23:54:22;11.00;99.90
1205;DHT22;592;48.764;9.174;2023-02-18T23:56:49;11.10;99.90
1205;DHT22;592;48.764;9.174;2023-02-18T23:59:17;11.10;99.90
